sensor_id;sensor_type;location;lat;lon;timestamp;P1;durP1;ratioP1;P2;durP2;ratioP2
56239;SDS011;42154;51.992;5.896;2022-12-18T00:01:36;73.22;;;34.90;;
56239;SDS011;42154;51.992;5.896;2022-12-18T00:04:03;69.53;;;33.67;;
56239;SDS011;42154;51.992;5.896;2022-12-18T00:06:30;66.22;;;32.97;;
56239;SDS011;42154;51.992;5.896;2022-12-18T00:09:00;74.53;;;33.75;;
56239;SDS011;42154;51.992;5.896;2022-12-18T00:11:28;64.15;;;32.25;;
56239;SDS011;42154;51.992;5.896;2022-12-18T00:13:57;67.28;;;33.50;;
56239;SDS011;42154;51.992;5.896;2022-12-18T00:16:24;66.13;;;32.85;;
56239;SDS011;42154;51.992;5.896;2022-12-18T00:18:52;66.32;;;32.90;;
56239;SDS011;42154;51.992;5.896;2022-12-18T00:21:20;61.45;;;31.95;;
56239;SDS011;42154;51.992;5.896;2022-12-18T00:23:46;65.20;;;31.88;;
56239;SDS011;42154;51.992;5.896;2022-12-18T00:26:14;60.28;;;29.70;;
56239;SDS011;42154;51.992;5.896;2022-12-18T00:28:43;55.15;;;28.20;;
56239;SDS011;42154;51.992;5.896;2022-12-18T00:31:11;57.45;;;29.25;;
56239;SDS011;42154;51.992;5.896;2022-12-18T00:33:39;56.80;;;29.65;;
56239;SDS011;42154;51.992;5.896;2022-12-18T00:36:12;62.47;;;30.83;;
56239;SDS011;42154;51.992;5.896;2022-12-18T00:38:40;67.78;;;33.05;;
56239;SDS011;42154;51.992;5.896;2022-12-18T00:41:06;69.03;;;34.47;;
56239;SDS011;42154;51.992;5.896;2022-12-18T00:43:34;61.78;;;32.45;;
56239;SDS011;42154;51.992;5.896;2022-12-18T00:46:00;62.75;;;33.60;;
56239;SDS011;42154;51.992;5.896;2022-12-18T00:48:26;65.65;;;33.03;;
56239;SDS011;42154;51.992;5.896;2022-12-18T00:50:52;67.15;;;33.53;;
56239;SDS011;42154;51.992;5.896;2022-12-18T00:53:18;60.38;;;32.25;;
56239;SDS011;42154;51.992;5.896;2022-12-18T00:55:44;63.22;;;33.05;;
56239;SDS011;42154;51.992;5.896;2022-12-18T00:58:14;60.28;;;32.35;;
56239;SDS011;42154;51.992;5.896;2022-12-18T01:00:41;45.10;;;22.85;;
56239;SDS011;42154;51.992;5.896;2022-12-18T01:03:10;63.80;;;31.60;;
56239;SDS011;42154;51.992;5.896;2022-12-18T01:05:39;56.92;;;29.48;;
56239;SDS011;42154;51.992;5.896;2022-12-18T01:08:06;58.70;;;29.52;;
56239;SDS011;42154;51.992;5.896;2022-12-18T01:10:31;50.33;;;26.83;;
56239;SDS011;42154;51.992;5.896;2022-12-18T01:12:57;54.17;;;28.58;;
56239;SDS011;42154;51.992;5.896;2022-12-18T01:15:23;55.83;;;28.05;;
56239;SDS011;42154;51.992;5.896;2022-12-18T01:17:49;54.30;;;28.80;;
56239;SDS011;42154;51.992;5.896;2022-12-18T01:20:17;56.58;;;28.80;;
56239;SDS011;42154;51.992;5.896;2022-12-18T01:22:43;55.92;;;28.52;;
56239;SDS011;42154;51.992;5.896;2022-12-18T01:25:09;55.35;;;28.77;;
56239;SDS011;42154;51.992;5.896;2022-12-18T01:27:35;59.05;;;28.63;;
56239;SDS011;42154;51.992;5.896;2022-12-18T01:30:02;53.63;;;28.25;;
56239;SDS011;42154;51.992;5.896;2022-12-18T01:32:29;51.33;;;28.35;;
56239;SDS011;42154;51.992;5.896;2022-12-18T01:34:56;50.78;;;26.65;;
56239;SDS011;42154;51.992;5.896;2022-12-18T01:37:22;52.83;;;28.08;;
56239;SDS011;42154;51.992;5.896;2022-12-18T01:39:48;48.42;;;25.85;;
56239;SDS011;42154;51.992;5.896;2022-12-18T01:42:15;55.58;;;28.70;;
56239;SDS011;42154;51.992;5.896;2022-12-18T01:49:52;50.78;;;26.38;;
56239;SDS011;42154;51.992;5.896;2022-12-18T01:52:18;47.47;;;25.75;;
56239;SDS011;42154;51.992;5.896;2022-12-18T01:54:46;48.22;;;25.48;;
56239;SDS011;42154;51.992;5.896;2022-12-18T01:57:14;52.80;;;26.10;;
56239;SDS011;42154;51.992;5.896;2022-12-18T01:59:40;54.55;;;27.13;;
56239;SDS011;42154;51.992;5.896;2022-12-18T02:02:09;49.33;;;27.95;;
56239;SDS011;42154;51.992;5.896;2022-12-18T02:04:36;49.45;;;26.10;;
56239;SDS011;42154;51.992;5.896;2022-12-18T02:09:45;50.33;;;26.73;;
56239;SDS011;42154;51.992;5.896;2022-12-18T02:12:20;56.95;;;27.92;;
56239;SDS011;42154;51.992;5.896;2022-12-18T02:17:34;49.83;;;26.08;;
56239;SDS011;42154;51.992;5.896;2022-12-18T02:20:16;49.47;;;25.13;;
56239;SDS011;42154;51.992;5.896;2022-12-18T02:23:31;58.15;;;28.33;;
56239;SDS011;42154;51.992;5.896;2022-12-18T02:26:15;47.42;;;26.33;;
56239;SDS011;42154;51.992;5.896;2022-12-18T02:29:06;45.53;;;24.23;;
56239;SDS011;42154;51.992;5.896;2022-12-18T02:31:39;53.00;;;26.67;;
56239;SDS011;42154;51.992;5.896;2022-12-18T02:34:13;46.55;;;25.20;;
56239;SDS011;42154;51.992;5.896;2022-12-18T02:36:41;50.25;;;26.63;;
56239;SDS011;42154;51.992;5.896;2022-12-18T02:39:10;56.92;;;28.52;;
56239;SDS011;42154;51.992;5.896;2022-12-18T02:41:45;47.83;;;25.80;;
56239;SDS011;42154;51.992;5.896;2022-12-18T02:44:13;48.47;;;25.85;;
56239;SDS011;42154;51.992;5.896;2022-12-18T02:46:41;45.03;;;23.65;;
56239;SDS011;42154;51.992;5.896;2022-12-18T02:57:56;47.47;;;25.27;;
56239;SDS011;42154;51.992;5.896;2022-12-18T03:03:47;50.63;;;24.30;;
56239;SDS011;42154;51.992;5.896;2022-12-18T03:08:48;44.25;;;23.65;;
56239;SDS011;42154;51.992;5.896;2022-12-18T03:11:18;45.95;;;23.50;;
56239;SDS011;42154;51.992;5.896;2022-12-18T03:14:06;48.75;;;24.55;;
56239;SDS011;42154;51.992;5.896;2022-12-18T03:16:33;48.85;;;24.83;;
56239;SDS011;42154;51.992;5.896;2022-12-18T03:19:03;47.78;;;25.23;;
56239;SDS011;42154;51.992;5.896;2022-12-18T03:21:36;44.47;;;24.27;;
56239;SDS011;42154;51.992;5.896;2022-12-18T03:24:08;45.85;;;23.58;;
56239;SDS011;42154;51.992;5.896;2022-12-18T03:26:35;46.92;;;24.63;;
56239;SDS011;42154;51.992;5.896;2022-12-18T03:29:07;44.30;;;23.95;;
56239;SDS011;42154;51.992;5.896;2022-12-18T03:31:40;44.72;;;23.20;;
56239;SDS011;42154;51.992;5.896;2022-12-18T03:34:14;45.47;;;23.77;;
56239;SDS011;42154;51.992;5.896;2022-12-18T03:36:45;47.38;;;24.83;;
56239;SDS011;42154;51.992;5.896;2022-12-18T03:39:12;44.90;;;22.63;;
56239;SDS011;42154;51.992;5.896;2022-12-18T03:41:44;41.70;;;22.90;;
56239;SDS011;42154;51.992;5.896;2022-12-18T03:47:36;42.10;;;22.05;;
56239;SDS011;42154;51.992;5.896;2022-12-18T03:50:19;39.72;;;22.17;;
56239;SDS011;42154;51.992;5.896;2022-12-18T03:52:55;39.92;;;21.20;;
56239;SDS011;42154;51.992;5.896;2022-12-18T03:55:26;38.03;;;20.67;;
56239;SDS011;42154;51.992;5.896;2022-12-18T03:57:59;37.78;;;20.13;;
56239;SDS011;42154;51.992;5.896;2022-12-18T04:00:35;36.03;;;19.95;;
56239;SDS011;42154;51.992;5.896;2022-12-18T04:03:06;34.92;;;19.88;;
56239;SDS011;42154;51.992;5.896;2022-12-18T04:05:40;29.90;;;18.08;;
56239;SDS011;42154;51.992;5.896;2022-12-18T04:08:07;38.75;;;19.77;;
56239;SDS011;42154;51.992;5.896;2022-12-18T04:10:37;37.40;;;19.73;;
56239;SDS011;42154;51.992;5.896;2022-12-18T04:13:03;37.13;;;20.33;;
56239;SDS011;42154;51.992;5.896;2022-12-18T04:15:29;35.22;;;19.00;;
56239;SDS011;42154;51.992;5.896;2022-12-18T04:17:57;33.92;;;18.25;;
56239;SDS011;42154;51.992;5.896;2022-12-18T04:20:26;36.20;;;19.15;;
56239;SDS011;42154;51.992;5.896;2022-12-18T04:22:52;32.88;;;18.00;;
56239;SDS011;42154;51.992;5.896;2022-12-18T04:25:19;34.40;;;17.48;;
56239;SDS011;42154;51.992;5.896;2022-12-18T04:27:58;34.40;;;18.23;;
56239;SDS011;42154;51.992;5.896;2022-12-18T04:30:23;34.25;;;19.02;;
56239;SDS011;42154;51.992;5.896;2022-12-18T04:32:49;35.40;;;18.55;;
56239;SDS011;42154;51.992;5.896;2022-12-18T04:35:15;28.90;;;16.85;;
56239;SDS011;42154;51.992;5.896;2022-12-18T04:37:42;30.30;;;17.48;;
56239;SDS011;42154;51.992;5.896;2022-12-18T04:40:09;30.40;;;17.75;;
56239;SDS011;42154;51.992;5.896;2022-12-18T04:42:40;27.92;;;16.35;;
56239;SDS011;42154;51.992;5.896;2022-12-18T04:45:06;28.20;;;17.23;;
56239;SDS011;42154;51.992;5.896;2022-12-18T04:47:32;31.17;;;16.85;;
56239;SDS011;42154;51.992;5.896;2022-12-18T04:49:58;30.15;;;16.65;;
56239;SDS011;42154;51.992;5.896;2022-12-18T04:52:24;33.38;;;17.55;;
56239;SDS011;42154;51.992;5.896;2022-12-18T04:54:49;28.77;;;16.40;;
56239;SDS011;42154;51.992;5.896;2022-12-18T04:57:16;25.05;;;14.77;;
56239;SDS011;42154;51.992;5.896;2022-12-18T04:59:43;25.35;;;14.93;;
56239;SDS011;42154;51.992;5.896;2022-12-18T05:02:09;25.27;;;14.65;;
56239;SDS011;42154;51.992;5.896;2022-12-18T05:04:35;29.10;;;16.05;;
56239;SDS011;42154;51.992;5.896;2022-12-18T05:07:01;27.90;;;15.35;;
56239;SDS011;42154;51.992;5.896;2022-12-18T05:09:26;31.42;;;16.77;;
56239;SDS011;42154;51.992;5.896;2022-12-18T05:11:52;28.60;;;16.20;;
56239;SDS011;42154;51.992;5.896;2022-12-18T05:14:18;29.33;;;15.60;;
56239;SDS011;42154;51.992;5.896;2022-12-18T05:16:44;27.38;;;15.20;;
56239;SDS011;42154;51.992;5.896;2022-12-18T05:19:10;28.45;;;16.05;;
56239;SDS011;42154;51.992;5.896;2022-12-18T05:21:36;29.95;;;16.23;;
56239;SDS011;42154;51.992;5.896;2022-12-18T05:24:01;28.90;;;16.20;;
56239;SDS011;42154;51.992;5.896;2022-12-18T05:26:27;28.10;;;15.80;;
56239;SDS011;42154;51.992;5.896;2022-12-18T05:28:53;29.10;;;15.43;;
56239;SDS011;42154;51.992;5.896;2022-12-18T05:31:18;28.30;;;15.95;;
56239;SDS011;42154;51.992;5.896;2022-12-18T05:33:44;26.33;;;14.88;;
56239;SDS011;42154;51.992;5.896;2022-12-18T05:36:10;26.63;;;15.98;;
56239;SDS011;42154;51.992;5.896;2022-12-18T05:38:37;26.75;;;14.88;;
56239;SDS011;42154;51.992;5.896;2022-12-18T05:41:04;24.08;;;14.73;;
56239;SDS011;42154;51.992;5.896;2022-12-18T05:43:30;26.65;;;14.70;;
56239;SDS011;42154;51.992;5.896;2022-12-18T05:46:01;24.95;;;15.05;;
56239;SDS011;42154;51.992;5.896;2022-12-18T05:48:29;20.95;;;13.07;;
56239;SDS011;42154;51.992;5.896;2022-12-18T05:50:54;27.20;;;15.52;;
56239;SDS011;42154;51.992;5.896;2022-12-18T05:53:20;23.25;;;14.38;;
56239;SDS011;42154;51.992;5.896;2022-12-18T05:55:46;26.90;;;15.27;;
56239;SDS011;42154;51.992;5.896;2022-12-18T05:58:12;23.70;;;14.68;;
56239;SDS011;42154;51.992;5.896;2022-12-18T06:00:40;25.15;;;15.10;;
56239;SDS011;42154;51.992;5.896;2022-12-18T06:03:08;26.65;;;15.25;;
56239;SDS011;42154;51.992;5.896;2022-12-18T06:05:38;31.08;;;16.98;;
56239;SDS011;42154;51.992;5.896;2022-12-18T06:08:05;27.85;;;16.15;;
56239;SDS011;42154;51.992;5.896;2022-12-18T06:10:31;27.13;;;16.33;;
56239;SDS011;42154;51.992;5.896;2022-12-18T06:12:57;29.17;;;16.15;;
56239;SDS011;42154;51.992;5.896;2022-12-18T06:15:23;24.83;;;15.77;;
56239;SDS011;42154;51.992;5.896;2022-12-18T06:17:49;25.58;;;15.00;;
56239;SDS011;42154;51.992;5.896;2022-12-18T06:20:15;29.35;;;16.65;;
56239;SDS011;42154;51.992;5.896;2022-12-18T06:22:41;24.98;;;15.73;;
56239;SDS011;42154;51.992;5.896;2022-12-18T06:25:07;29.27;;;17.38;;
56239;SDS011;42154;51.992;5.896;2022-12-18T06:27:33;28.33;;;15.88;;
56239;SDS011;42154;51.992;5.896;2022-12-18T06:29:59;22.92;;;14.15;;
56239;SDS011;42154;51.992;5.896;2022-12-18T06:32:25;23.42;;;13.18;;
56239;SDS011;42154;51.992;5.896;2022-12-18T06:34:51;25.42;;;15.93;;
56239;SDS011;42154;51.992;5.896;2022-12-18T06:37:18;27.52;;;15.20;;
56239;SDS011;42154;51.992;5.896;2022-12-18T06:39:44;23.33;;;14.05;;
56239;SDS011;42154;51.992;5.896;2022-12-18T06:42:10;25.85;;;14.95;;
56239;SDS011;42154;51.992;5.896;2022-12-18T06:44:36;25.60;;;15.55;;
56239;SDS011;42154;51.992;5.896;2022-12-18T06:47:02;24.17;;;14.73;;
56239;SDS011;42154;51.992;5.896;2022-12-18T06:49:27;27.55;;;16.90;;
56239;SDS011;42154;51.992;5.896;2022-12-18T06:51:53;26.15;;;16.88;;
56239;SDS011;42154;51.992;5.896;2022-12-18T06:54:19;26.70;;;15.90;;
56239;SDS011;42154;51.992;5.896;2022-12-18T06:56:45;24.38;;;16.02;;
56239;SDS011;42154;51.992;5.896;2022-12-18T06:59:12;23.30;;;13.68;;
56239;SDS011;42154;51.992;5.896;2022-12-18T07:01:38;22.17;;;13.43;;
56239;SDS011;42154;51.992;5.896;2022-12-18T07:04:04;25.23;;;15.48;;
56239;SDS011;42154;51.992;5.896;2022-12-18T07:06:29;26.38;;;15.93;;
56239;SDS011;42154;51.992;5.896;2022-12-18T07:08:55;23.48;;;14.48;;
56239;SDS011;42154;51.992;5.896;2022-12-18T07:11:21;23.92;;;14.57;;
56239;SDS011;42154;51.992;5.896;2022-12-18T07:13:47;26.17;;;15.25;;
56239;SDS011;42154;51.992;5.896;2022-12-18T07:16:14;29.23;;;16.38;;
56239;SDS011;42154;51.992;5.896;2022-12-18T07:18:42;26.13;;;15.90;;
56239;SDS011;42154;51.992;5.896;2022-12-18T07:21:09;27.55;;;15.38;;
56239;SDS011;42154;51.992;5.896;2022-12-18T07:23:37;26.10;;;14.63;;
56239;SDS011;42154;51.992;5.896;2022-12-18T07:26:04;26.08;;;14.55;;
56239;SDS011;42154;51.992;5.896;2022-12-18T07:28:32;26.38;;;15.68;;
56239;SDS011;42154;51.992;5.896;2022-12-18T07:30:58;24.02;;;13.73;;
56239;SDS011;42154;51.992;5.896;2022-12-18T07:33:32;23.67;;;14.15;;
56239;SDS011;42154;51.992;5.896;2022-12-18T07:35:58;22.30;;;13.75;;
56239;SDS011;42154;51.992;5.896;2022-12-18T07:38:28;23.80;;;14.02;;
56239;SDS011;42154;51.992;5.896;2022-12-18T07:40:54;22.85;;;13.85;;
56239;SDS011;42154;51.992;5.896;2022-12-18T07:43:29;21.30;;;13.60;;
56239;SDS011;42154;51.992;5.896;2022-12-18T07:45:55;23.27;;;13.80;;
56239;SDS011;42154;51.992;5.896;2022-12-18T07:48:21;24.15;;;14.07;;
56239;SDS011;42154;51.992;5.896;2022-12-18T07:50:47;24.23;;;14.65;;
56239;SDS011;42154;51.992;5.896;2022-12-18T07:53:12;21.98;;;13.32;;
56239;SDS011;42154;51.992;5.896;2022-12-18T07:55:39;23.10;;;13.57;;
56239;SDS011;42154;51.992;5.896;2022-12-18T07:58:06;22.90;;;13.27;;
56239;SDS011;42154;51.992;5.896;2022-12-18T08:00:32;20.83;;;13.52;;
56239;SDS011;42154;51.992;5.896;2022-12-18T08:02:58;22.17;;;13.00;;
56239;SDS011;42154;51.992;5.896;2022-12-18T08:05:24;20.58;;;13.00;;
56239;SDS011;42154;51.992;5.896;2022-12-18T08:07:50;22.35;;;13.43;;
56239;SDS011;42154;51.992;5.896;2022-12-18T08:10:16;24.00;;;14.43;;
56239;SDS011;42154;51.992;5.896;2022-12-18T08:12:42;22.58;;;14.13;;
56239;SDS011;42154;51.992;5.896;2022-12-18T08:15:07;22.02;;;13.90;;
56239;SDS011;42154;51.992;5.896;2022-12-18T08:17:33;24.42;;;14.52;;
56239;SDS011;42154;51.992;5.896;2022-12-18T08:19:59;22.20;;;13.05;;
56239;SDS011;42154;51.992;5.896;2022-12-18T08:22:25;23.40;;;12.75;;
56239;SDS011;42154;51.992;5.896;2022-12-18T08:24:51;21.98;;;12.75;;
56239;SDS011;42154;51.992;5.896;2022-12-18T08:27:16;18.60;;;11.70;;
56239;SDS011;42154;51.992;5.896;2022-12-18T08:29:42;22.38;;;13.20;;
56239;SDS011;42154;51.992;5.896;2022-12-18T08:32:08;18.77;;;12.10;;
56239;SDS011;42154;51.992;5.896;2022-12-18T08:34:34;20.83;;;12.02;;
56239;SDS011;42154;51.992;5.896;2022-12-18T08:37:00;20.02;;;12.10;;
56239;SDS011;42154;51.992;5.896;2022-12-18T08:39:26;18.75;;;12.00;;
56239;SDS011;42154;51.992;5.896;2022-12-18T08:41:51;20.92;;;13.18;;
56239;SDS011;42154;51.992;5.896;2022-12-18T08:44:35;17.10;;;11.32;;
56239;SDS011;42154;51.992;5.896;2022-12-18T08:47:05;20.50;;;11.90;;
56239;SDS011;42154;51.992;5.896;2022-12-18T08:49:31;19.90;;;11.48;;
56239;SDS011;42154;51.992;5.896;2022-12-18T08:51:57;20.83;;;12.20;;
56239;SDS011;42154;51.992;5.896;2022-12-18T08:54:23;19.05;;;11.30;;
56239;SDS011;42154;51.992;5.896;2022-12-18T08:56:50;19.80;;;11.15;;
56239;SDS011;42154;51.992;5.896;2022-12-18T08:59:16;21.38;;;11.35;;
56239;SDS011;42154;51.992;5.896;2022-12-18T09:01:42;20.27;;;11.07;;
56239;SDS011;42154;51.992;5.896;2022-12-18T09:04:08;20.60;;;12.35;;
56239;SDS011;42154;51.992;5.896;2022-12-18T09:06:34;18.40;;;10.43;;
56239;SDS011;42154;51.992;5.896;2022-12-18T09:09:01;21.50;;;12.13;;
56239;SDS011;42154;51.992;5.896;2022-12-18T09:11:27;19.67;;;11.48;;
56239;SDS011;42154;51.992;5.896;2022-12-18T09:13:55;17.50;;;10.70;;
56239;SDS011;42154;51.992;5.896;2022-12-18T09:16:21;19.67;;;11.07;;
56239;SDS011;42154;51.992;5.896;2022-12-18T09:18:49;18.75;;;11.20;;
56239;SDS011;42154;51.992;5.896;2022-12-18T09:21:16;16.63;;;10.35;;
56239;SDS011;42154;51.992;5.896;2022-12-18T09:23:43;17.23;;;10.75;;
56239;SDS011;42154;51.992;5.896;2022-12-18T09:26:14;16.10;;;10.20;;
56239;SDS011;42154;51.992;5.896;2022-12-18T09:28:39;17.13;;;10.48;;
56239;SDS011;42154;51.992;5.896;2022-12-18T09:31:06;15.43;;;9.45;;
56239;SDS011;42154;51.992;5.896;2022-12-18T09:33:36;16.33;;;9.40;;
56239;SDS011;42154;51.992;5.896;2022-12-18T09:36:05;14.80;;;9.48;;
56239;SDS011;42154;51.992;5.896;2022-12-18T09:38:32;12.10;;;6.82;;
56239;SDS011;42154;51.992;5.896;2022-12-18T09:41:00;16.13;;;10.10;;
56239;SDS011;42154;51.992;5.896;2022-12-18T09:43:52;17.35;;;9.60;;
56239;SDS011;42154;51.992;5.896;2022-12-18T09:46:23;16.83;;;10.00;;
56239;SDS011;42154;51.992;5.896;2022-12-18T09:48:54;15.52;;;9.65;;
56239;SDS011;42154;51.992;5.896;2022-12-18T09:51:26;17.20;;;10.05;;
56239;SDS011;42154;51.992;5.896;2022-12-18T09:54:05;15.63;;;9.63;;
56239;SDS011;42154;51.992;5.896;2022-12-18T09:56:38;16.38;;;9.57;;
56239;SDS011;42154;51.992;5.896;2022-12-18T09:59:09;15.88;;;9.10;;
56239;SDS011;42154;51.992;5.896;2022-12-18T10:01:46;17.55;;;10.75;;
56239;SDS011;42154;51.992;5.896;2022-12-18T10:04:11;17.92;;;10.55;;
56239;SDS011;42154;51.992;5.896;2022-12-18T10:09:41;17.38;;;10.18;;
56239;SDS011;42154;51.992;5.896;2022-12-18T10:12:27;17.63;;;10.77;;
56239;SDS011;42154;51.992;5.896;2022-12-18T10:20:59;15.88;;;9.77;;
56239;SDS011;42154;51.992;5.896;2022-12-18T10:23:37;16.33;;;9.73;;
56239;SDS011;42154;51.992;5.896;2022-12-18T10:26:06;16.25;;;10.50;;
56239;SDS011;42154;51.992;5.896;2022-12-18T10:28:35;15.60;;;9.57;;
56239;SDS011;42154;51.992;5.896;2022-12-18T10:31:07;17.48;;;10.90;;
56239;SDS011;42154;51.992;5.896;2022-12-18T10:33:46;16.20;;;9.73;;
56239;SDS011;42154;51.992;5.896;2022-12-18T10:36:12;17.58;;;10.85;;
56239;SDS011;42154;51.992;5.896;2022-12-18T10:38:38;15.50;;;9.90;;
56239;SDS011;42154;51.992;5.896;2022-12-18T10:41:05;18.90;;;10.70;;
56239;SDS011;42154;51.992;5.896;2022-12-18T10:44:10;15.73;;;9.65;;
56239;SDS011;42154;51.992;5.896;2022-12-18T10:46:44;16.48;;;10.18;;
56239;SDS011;42154;51.992;5.896;2022-12-18T10:49:18;17.58;;;9.35;;
56239;SDS011;42154;51.992;5.896;2022-12-18T10:51:47;16.75;;;10.20;;
56239;SDS011;42154;51.992;5.896;2022-12-18T10:54:14;15.65;;;10.38;;
56239;SDS011;42154;51.992;5.896;2022-12-18T10:56:43;17.05;;;9.93;;
56239;SDS011;42154;51.992;5.896;2022-12-18T10:59:10;16.98;;;10.30;;
56239;SDS011;42154;51.992;5.896;2022-12-18T11:01:48;17.77;;;10.65;;
56239;SDS011;42154;51.992;5.896;2022-12-18T11:04:21;19.20;;;10.73;;
56239;SDS011;42154;51.992;5.896;2022-12-18T11:09:24;16.75;;;10.75;;
56239;SDS011;42154;51.992;5.896;2022-12-18T11:11:53;18.13;;;10.95;;
56239;SDS011;42154;51.992;5.896;2022-12-18T11:14:24;17.95;;;11.45;;
56239;SDS011;42154;51.992;5.896;2022-12-18T11:16:54;19.45;;;11.43;;
56239;SDS011;42154;51.992;5.896;2022-12-18T11:19:38;20.02;;;11.73;;
56239;SDS011;42154;51.992;5.896;2022-12-18T11:27:23;15.93;;;10.02;;
56239;SDS011;42154;51.992;5.896;2022-12-18T11:29:50;17.05;;;11.05;;
56239;SDS011;42154;51.992;5.896;2022-12-18T11:38:16;18.58;;;10.93;;
56239;SDS011;42154;51.992;5.896;2022-12-18T11:44:27;20.10;;;11.30;;
56239;SDS011;42154;51.992;5.896;2022-12-18T11:47:42;17.10;;;11.48;;
56239;SDS011;42154;51.992;5.896;2022-12-18T11:49:45;17.05;;;11.15;;
56239;SDS011;42154;51.992;5.896;2022-12-18T11:52:16;20.63;;;11.75;;
56239;SDS011;42154;51.992;5.896;2022-12-18T11:54:45;14.63;;;8.65;;
56239;SDS011;42154;51.992;5.896;2022-12-18T11:57:16;19.23;;;11.55;;
56239;SDS011;42154;51.992;5.896;2022-12-18T12:08:00;17.08;;;10.40;;
56239;SDS011;42154;51.992;5.896;2022-12-18T12:16:24;16.67;;;10.80;;
56239;SDS011;42154;51.992;5.896;2022-12-18T12:21:26;18.35;;;11.50;;
56239;SDS011;42154;51.992;5.896;2022-12-18T12:37:43;16.45;;;9.32;;
56239;SDS011;42154;51.992;5.896;2022-12-18T12:40:47;15.63;;;9.73;;
56239;SDS011;42154;51.992;5.896;2022-12-18T12:45:57;15.80;;;10.05;;
56239;SDS011;42154;51.992;5.896;2022-12-18T12:51:14;15.88;;;10.40;;
56239;SDS011;42154;51.992;5.896;2022-12-18T12:53:41;16.77;;;10.35;;
56239;SDS011;42154;51.992;5.896;2022-12-18T12:56:08;16.55;;;10.70;;
56239;SDS011;42154;51.992;5.896;2022-12-18T12:58:43;15.32;;;10.32;;
56239;SDS011;42154;51.992;5.896;2022-12-18T13:01:38;14.32;;;9.82;;
56239;SDS011;42154;51.992;5.896;2022-12-18T13:06:57;16.83;;;11.50;;
56239;SDS011;42154;51.992;5.896;2022-12-18T13:09:23;17.02;;;11.35;;
56239;SDS011;42154;51.992;5.896;2022-12-18T13:11:49;18.63;;;11.15;;
56239;SDS011;42154;51.992;5.896;2022-12-18T13:14:37;17.30;;;11.35;;
56239;SDS011;42154;51.992;5.896;2022-12-18T13:17:14;18.58;;;11.48;;
56239;SDS011;42154;51.992;5.896;2022-12-18T13:19:43;18.63;;;11.27;;
56239;SDS011;42154;51.992;5.896;2022-12-18T13:24:48;19.20;;;11.70;;
56239;SDS011;42154;51.992;5.896;2022-12-18T13:30:33;18.45;;;11.30;;
56239;SDS011;42154;51.992;5.896;2022-12-18T13:38:44;17.77;;;10.95;;
56239;SDS011;42154;51.992;5.896;2022-12-18T13:43:53;17.77;;;11.18;;
56239;SDS011;42154;51.992;5.896;2022-12-18T13:46:29;18.08;;;10.85;;
56239;SDS011;42154;51.992;5.896;2022-12-18T13:51:42;16.27;;;9.88;;
56239;SDS011;42154;51.992;5.896;2022-12-18T13:56:45;16.05;;;10.20;;
56239;SDS011;42154;51.992;5.896;2022-12-18T14:01:47;18.70;;;11.85;;
56239;SDS011;42154;51.992;5.896;2022-12-18T14:06:46;17.13;;;11.38;;
56239;SDS011;42154;51.992;5.896;2022-12-18T14:09:15;16.70;;;10.38;;
56239;SDS011;42154;51.992;5.896;2022-12-18T14:11:47;19.02;;;12.05;;
56239;SDS011;42154;51.992;5.896;2022-12-18T14:14:17;17.27;;;11.13;;
56239;SDS011;42154;51.992;5.896;2022-12-18T14:16:45;19.00;;;11.63;;
56239;SDS011;42154;51.992;5.896;2022-12-18T14:19:15;19.20;;;11.65;;
56239;SDS011;42154;51.992;5.896;2022-12-18T14:21:46;17.58;;;10.95;;
56239;SDS011;42154;51.992;5.896;2022-12-18T14:24:17;18.60;;;11.00;;
56239;SDS011;42154;51.992;5.896;2022-12-18T14:26:46;17.67;;;10.85;;
56239;SDS011;42154;51.992;5.896;2022-12-18T14:29:26;18.08;;;11.13;;
56239;SDS011;42154;51.992;5.896;2022-12-18T14:32:07;18.35;;;10.57;;
56239;SDS011;42154;51.992;5.896;2022-12-18T14:34:47;23.52;;;12.32;;
56239;SDS011;42154;51.992;5.896;2022-12-18T14:37:25;19.40;;;11.23;;
56239;SDS011;42154;51.992;5.896;2022-12-18T14:39:56;17.13;;;11.15;;
56239;SDS011;42154;51.992;5.896;2022-12-18T14:42:27;18.77;;;10.95;;
56239;SDS011;42154;51.992;5.896;2022-12-18T14:47:57;16.02;;;10.77;;
56239;SDS011;42154;51.992;5.896;2022-12-18T14:50:30;17.83;;;11.40;;
56239;SDS011;42154;51.992;5.896;2022-12-18T14:52:56;20.27;;;11.98;;
56239;SDS011;42154;51.992;5.896;2022-12-18T14:55:21;19.35;;;11.63;;
56239;SDS011;42154;51.992;5.896;2022-12-18T14:57:51;19.75;;;12.52;;
56239;SDS011;42154;51.992;5.896;2022-12-18T15:00:22;15.93;;;10.52;;
56239;SDS011;42154;51.992;5.896;2022-12-18T15:02:50;20.60;;;12.02;;
56239;SDS011;42154;51.992;5.896;2022-12-18T15:05:24;18.98;;;11.85;;
56239;SDS011;42154;51.992;5.896;2022-12-18T15:07:55;19.63;;;12.43;;
56239;SDS011;42154;51.992;5.896;2022-12-18T15:10:24;19.88;;;11.98;;
56239;SDS011;42154;51.992;5.896;2022-12-18T15:23:17;18.05;;;11.70;;
56239;SDS011;42154;51.992;5.896;2022-12-18T15:25:46;30.15;;;17.08;;
56239;SDS011;42154;51.992;5.896;2022-12-18T15:28:22;25.95;;;15.43;;
56239;SDS011;42154;51.992;5.896;2022-12-18T15:33:29;20.90;;;13.38;;
56239;SDS011;42154;51.992;5.896;2022-12-18T15:36:00;19.02;;;12.43;;
56239;SDS011;42154;51.992;5.896;2022-12-18T15:38:28;21.83;;;13.00;;
56239;SDS011;42154;51.992;5.896;2022-12-18T15:40:54;22.65;;;14.45;;
56239;SDS011;42154;51.992;5.896;2022-12-18T15:43:21;20.83;;;13.35;;
56239;SDS011;42154;51.992;5.896;2022-12-18T15:46:04;22.15;;;13.52;;
56239;SDS011;42154;51.992;5.896;2022-12-18T15:48:32;21.38;;;12.95;;
56239;SDS011;42154;51.992;5.896;2022-12-18T15:51:00;19.48;;;13.40;;
56239;SDS011;42154;51.992;5.896;2022-12-18T15:53:32;25.92;;;14.23;;
56239;SDS011;42154;51.992;5.896;2022-12-18T15:55:58;24.27;;;14.15;;
56239;SDS011;42154;51.992;5.896;2022-12-18T15:58:43;22.88;;;13.95;;
56239;SDS011;42154;51.992;5.896;2022-12-18T16:01:09;22.52;;;13.45;;
56239;SDS011;42154;51.992;5.896;2022-12-18T16:03:35;23.08;;;14.70;;
56239;SDS011;42154;51.992;5.896;2022-12-18T16:06:01;24.50;;;15.00;;
56239;SDS011;42154;51.992;5.896;2022-12-18T16:08:30;26.02;;;15.68;;
56239;SDS011;42154;51.992;5.896;2022-12-18T16:10:57;23.15;;;13.88;;
56239;SDS011;42154;51.992;5.896;2022-12-18T16:13:23;24.65;;;15.10;;
56239;SDS011;42154;51.992;5.896;2022-12-18T16:15:49;26.52;;;15.70;;
56239;SDS011;42154;51.992;5.896;2022-12-18T16:18:15;23.77;;;14.27;;
56239;SDS011;42154;51.992;5.896;2022-12-18T16:20:40;23.40;;;15.00;;
56239;SDS011;42154;51.992;5.896;2022-12-18T16:23:06;32.45;;;17.50;;
56239;SDS011;42154;51.992;5.896;2022-12-18T16:25:32;28.90;;;18.23;;
56239;SDS011;42154;51.992;5.896;2022-12-18T16:27:58;27.85;;;16.30;;
56239;SDS011;42154;51.992;5.896;2022-12-18T16:30:26;26.75;;;15.95;;
56239;SDS011;42154;51.992;5.896;2022-12-18T16:32:53;27.23;;;16.20;;
56239;SDS011;42154;51.992;5.896;2022-12-18T16:35:20;28.15;;;16.45;;
56239;SDS011;42154;51.992;5.896;2022-12-18T16:37:46;25.77;;;15.77;;
56239;SDS011;42154;51.992;5.896;2022-12-18T16:40:13;26.13;;;16.17;;
56239;SDS011;42154;51.992;5.896;2022-12-18T16:42:40;30.02;;;17.15;;
56239;SDS011;42154;51.992;5.896;2022-12-18T16:45:08;26.52;;;16.83;;
56239;SDS011;42154;51.992;5.896;2022-12-18T16:47:37;25.27;;;16.30;;
56239;SDS011;42154;51.992;5.896;2022-12-18T16:50:03;26.73;;;16.58;;